Time;durP1;ratioP1;P1;durP2;ratioP2;P2;SDS_P1;SDS_P2;PMS_P1;PMS_P2;Temp;Humidity;BMP_temperature;BMP_pressure;BME280_temperature;BME280_humidity;BME280_pressure;Samples;Min_cycle;Max_cycle;Signal;HPM_P1;HPM_P2
2022/06/27 00:01:13;;;;;;;7.95;0.80;;;14.00;99.90;;;;;;5008921;28;20057;-65
2022/06/27 00:03:39;;;;;;;4.40;0.82;;;14.00;99.90;;;;;;5009889;28;20108;-66
2022/06/27 00:06:05;;;;;;;3.65;0.60;;;14.10;99.90;;;;;;5008912;28;20041;-65
2022/06/27 00:08:31;;;;;;;3.13;0.65;;;14.10;99.90;;;;;;5010049;28;20022;-65
2022/06/27 00:10:56;;;;;;;3.22;0.70;;;14.00;99.90;;;;;;5008389;28;20022;-62
2022/06/27 00:13:22;;;;;;;2.42;0.60;;;14.00;99.90;;;;;;5009327;28;20394;-65
2022/06/27 00:15:48;;;;;;;6.13;1.13;;;13.90;99.90;;;;;;5010205;28;20038;-64
2022/06/27 00:18:14;;;;;;;2.50;0.57;;;13.80;99.90;;;;;;5005761;28;20448;-65
2022/06/27 00:20:39;;;;;;;2.20;1.20;;;13.80;99.90;;;;;;5004088;28;20041;-65
2022/06/27 00:23:05;;;;;;;4.72;0.73;;;13.90;99.90;;;;;;5008288;28;20041;-65
2022/06/27 00:25:31;;;;;;;4.78;0.90;;;13.90;99.90;;;;;;5001646;28;20026;-65
2022/06/27 00:27:56;;;;;;;6.57;0.70;;;13.90;99.90;;;;;;5007809;28;20489;-65
2022/06/27 00:30:22;;;;;;;5.70;0.98;;;14.00;99.90;;;;;;5009948;28;20045;-65
2022/06/27 00:32:48;;;;;;;3.90;0.70;;;14.00;99.90;;;;;;5010177;28;20108;-65
2022/06/27 00:35:15;;;;;;;5.38;0.90;;;14.00;99.90;;;;;;5007653;28;20037;-65
2022/06/27 00:37:41;;;;;;;5.63;0.50;;;14.00;99.90;;;;;;5002734;28;20076;-65
2022/06/27 00:40:07;;;;;;;1.67;0.60;;;13.90;99.90;;;;;;5008390;28;20042;-65
2022/06/27 00:42:34;;;;;;;4.35;0.90;;;13.90;99.90;;;;;;5009394;28;20080;-65
2022/06/27 00:45:00;;;;;;;5.03;1.00;;;13.90;99.90;;;;;;5007378;28;20533;-65
2022/06/27 00:47:26;;;;;;;5.13;0.65;;;13.90;99.90;;;;;;5010011;28;20045;-66
2022/06/27 00:49:52;;;;;;;2.47;0.57;;;13.80;99.90;;;;;;5009859;28;20032;-66
2022/06/27 00:52:17;;;;;;;7.22;1.00;;;13.70;99.90;;;;;;5007960;28;20025;-65
2022/06/27 00:54:45;;;;;;;3.67;0.60;;;13.60;99.90;;;;;;5008962;28;20057;-65
2022/06/27 00:57:12;;;;;;;2.38;0.60;;;13.50;99.90;;;;;;5005296;28;20038;-65
2022/06/27 00:59:38;;;;;;;5.07;0.65;;;13.50;99.90;;;;;;5009575;28;20088;-65
2022/06/27 01:02:05;;;;;;;4.75;0.50;;;13.40;99.90;;;;;;5007803;28;20026;-66
2022/06/27 01:04:31;;;;;;;3.85;0.47;;;13.40;99.90;;;;;;5010022;28;20030;-66
2022/06/27 01:06:57;;;;;;;2.80;0.95;;;13.30;99.90;;;;;;5007749;28;20022;-67
2022/06/27 01:09:24;;;;;;;5.72;0.68;;;13.20;99.90;;;;;;5009049;28;20026;-66
2022/06/27 01:11:50;;;;;;;7.10;0.90;;;13.10;99.90;;;;;;5009149;28;20018;-66
2022/06/27 01:14:17;;;;;;;6.53;0.80;;;13.00;99.90;;;;;;5007957;28;20438;-66
2022/06/27 01:16:44;;;;;;;5.15;0.47;;;12.90;99.90;;;;;;5009636;28;20419;-64
2022/06/27 01:19:11;;;;;;;2.45;0.63;;;12.90;99.90;;;;;;5007770;28;20438;-65
2022/06/27 01:21:52;;;;;;;3.75;0.50;;;12.80;99.90;;;;;;5016836;28;20030;-65
2022/06/27 01:24:19;;;;;;;5.07;0.82;;;12.70;99.90;;;;;;5006549;28;20104;-65
2022/06/27 01:26:45;;;;;;;2.90;0.40;;;12.60;99.90;;;;;;5008934;28;20056;-65
2022/06/27 01:29:12;;;;;;;6.75;1.52;;;12.40;99.90;;;;;;5010224;28;20032;-64
2022/06/27 01:31:39;;;;;;;6.65;1.50;;;12.30;99.90;;;;;;5013637;28;20046;-65
2022/06/27 01:34:06;;;;;;;3.30;0.70;;;12.20;99.90;;;;;;5010583;28;20053;-65
2022/06/27 01:36:44;;;;;;;3.03;0.45;;;12.10;99.90;;;;;;5013273;28;20159;-65
2022/06/27 01:39:22;;;;;;;4.57;0.60;;;12.10;99.90;;;;;;5010912;28;20049;-65
2022/06/27 01:41:51;;;;;;;2.88;0.98;;;12.20;99.90;;;;;;5012351;28;20040;-66
2022/06/27 01:44:18;;;;;;;2.17;0.50;;;12.20;99.90;;;;;;5004692;28;20037;-65
2022/06/27 01:46:49;;;;;;;2.25;0.73;;;12.10;99.90;;;;;;5013641;28;20036;-65
2022/06/27 01:49:17;;;;;;;2.22;0.65;;;12.00;99.90;;;;;;5010345;28;20064;-65
2022/06/27 01:51:48;;;;;;;4.93;0.65;;;11.90;99.90;;;;;;5012684;28;20497;-65
2022/06/27 01:54:15;;;;;;;3.40;0.60;;;11.80;99.90;;;;;;5001614;28;20113;-65
2022/06/27 01:56:42;;;;;;;5.10;0.77;;;11.70;99.90;;;;;;5012358;28;20434;-66
2022/06/27 01:59:09;;;;;;;5.25;0.68;;;11.70;99.90;;;;;;5009842;28;20548;-65
2022/06/27 02:01:35;;;;;;;3.05;0.40;;;11.60;99.90;;;;;;5013162;28;20072;-65
2022/06/27 02:04:01;;;;;;;2.53;0.60;;;11.60;99.90;;;;;;5011288;28;20443;-65
2022/06/27 02:06:29;;;;;;;2.78;0.50;;;11.70;99.90;;;;;;5012508;28;20022;-65
2022/06/27 02:08:57;;;;;;;4.38;0.90;;;11.70;99.90;;;;;;5012904;28;20030;-66
2022/06/27 02:11:25;;;;;;;3.53;0.68;;;11.50;99.90;;;;;;5004591;28;20093;-66
2022/06/27 02:13:50;;;;;;;3.15;0.40;;;11.50;99.90;;;;;;5011655;28;20026;-66
2022/06/27 02:16:18;;;;;;;3.95;0.60;;;11.50;99.90;;;;;;5011080;28;20041;-66
2022/06/27 02:18:46;;;;;;;2.55;0.50;;;11.50;99.90;;;;;;5012276;28;20037;-66
2022/06/27 02:21:15;;;;;;;1.38;0.68;;;11.50;99.90;;;;;;5010578;28;20029;-65
2022/06/27 02:23:41;;;;;;;4.43;0.63;;;11.40;99.90;;;;;;5009067;28;20037;-66
2022/06/27 02:26:08;;;;;;;6.45;1.45;;;11.40;99.90;;;;;;5009962;28;20032;-65
2022/06/27 02:28:35;;;;;;;2.20;0.60;;;11.40;99.90;;;;;;5005061;28;20061;-65
2022/06/27 02:31:01;;;;;;;5.60;0.60;;;11.50;99.90;;;;;;5010563;28;20553;-66
2022/06/27 02:33:53;;;;;;;3.33;0.60;;;11.50;99.90;;;;;;5010519;28;20030;-65
2022/06/27 02:36:32;;;;;;;3.13;0.38;;;11.50;99.90;;;;;;4999238;28;20038;-65
2022/06/27 02:39:00;;;;;;;8.82;0.70;;;11.40;99.90;;;;;;5007080;28;20112;-64
2022/06/27 02:41:28;;;;;;;4.63;0.80;;;11.30;99.90;;;;;;5011765;28;20065;-66
2022/06/27 02:44:01;;;;;;;1.83;0.68;;;11.30;99.90;;;;;;5010443;28;20061;-65
2022/06/27 02:46:28;;;;;;;3.38;0.55;;;11.30;99.90;;;;;;5009833;28;20022;-65
2022/06/27 02:48:53;;;;;;;5.00;1.83;;;11.30;99.90;;;;;;5012309;28;20113;-65
2022/06/27 02:51:22;;;;;;;5.10;0.60;;;11.30;99.90;;;;;;5010646;28;20064;-65
2022/06/27 02:53:54;;;;;;;5.50;0.80;;;11.20;99.90;;;;;;5011133;28;20117;-66
2022/06/27 02:56:25;;;;;;;1.55;0.70;;;11.30;99.90;;;;;;5010164;28;20029;-65
2022/06/27 02:58:58;;;;;;;3.72;0.93;;;11.20;99.90;;;;;;5005752;28;20076;-65
2022/06/27 03:01:28;;;;;;;2.30;0.57;;;11.20;99.90;;;;;;5007432;28;20056;-65
2022/06/27 03:03:55;;;;;;;4.85;0.93;;;11.30;99.90;;;;;;5010673;28;20441;-65
2022/06/27 03:06:22;;;;;;;4.88;0.55;;;11.40;99.90;;;;;;5009700;28;20101;-64
2022/06/27 03:08:48;;;;;;;2.92;0.82;;;11.50;99.90;;;;;;5011678;28;20022;-65
2022/06/27 03:11:16;;;;;;;6.70;1.02;;;11.50;99.90;;;;;;5009868;28;20459;-65
2022/06/27 03:13:43;;;;;;;3.15;0.60;;;11.60;99.90;;;;;;5011334;28;20029;-64
2022/06/27 03:16:10;;;;;;;4.32;0.90;;;11.60;99.90;;;;;;5002800;28;20084;-65
2022/06/27 03:18:35;;;;;;;4.20;0.77;;;11.60;99.90;;;;;;5009045;28;20034;-66
2022/06/27 03:21:01;;;;;;;4.30;0.60;;;11.60;99.90;;;;;;5009561;28;20034;-65
2022/06/27 03:23:27;;;;;;;5.85;0.73;;;11.60;99.90;;;;;;5011482;28;20037;-65
2022/06/27 03:25:54;;;;;;;5.03;1.00;;;11.50;99.90;;;;;;5010927;28;20105;-65
2022/06/27 03:28:20;;;;;;;5.45;0.80;;;11.50;99.90;;;;;;5008436;28;20389;-65
2022/06/27 03:30:46;;;;;;;3.60;0.63;;;11.50;99.90;;;;;;5011275;28;20117;-64
2022/06/27 03:33:12;;;;;;;5.20;1.10;;;11.40;99.90;;;;;;5008876;28;20030;-65
2022/06/27 03:35:37;;;;;;;8.45;0.80;;;11.30;99.90;;;;;;5011081;28;20474;-65
2022/06/27 03:38:03;;;;;;;5.53;0.95;;;11.30;99.90;;;;;;5008653;28;20120;-65
2022/06/27 03:40:29;;;;;;;4.05;0.60;;;11.30;99.90;;;;;;5009525;28;20026;-65
2022/06/27 03:42:55;;;;;;;6.03;0.60;;;11.20;99.90;;;;;;5010465;28;20022;-65
2022/06/27 03:45:20;;;;;;;6.72;1.08;;;11.20;99.90;;;;;;5005916;28;20026;-66
2022/06/27 03:47:51;;;;;;;5.57;0.70;;;11.30;99.90;;;;;;5009897;28;20045;-65
2022/06/27 03:50:18;;;;;;;4.38;1.38;;;11.30;99.90;;;;;;5008113;28;20398;-65
2022/06/27 03:52:44;;;;;;;5.78;1.65;;;11.20;99.90;;;;;;5009822;28;20453;-66
2022/06/27 03:55:11;;;;;;;3.63;1.67;;;11.10;99.90;;;;;;5008814;28;20026;-66
2022/06/27 03:57:37;;;;;;;3.42;1.42;;;11.10;99.90;;;;;;5009380;28;20026;-65
2022/06/27 04:00:08;;;;;;;5.25;1.50;;;11.00;99.90;;;;;;5009118;28;20034;-65
2022/06/27 04:02:34;;;;;;;3.47;1.50;;;11.00;99.90;;;;;;5010583;28;20124;-65
2022/06/27 04:05:00;;;;;;;3.95;1.90;;;10.90;99.90;;;;;;5008646;28;20033;-65
2022/06/27 04:07:26;;;;;;;2.67;1.20;;;10.90;99.90;;;;;;5010918;28;20034;-65
2022/06/27 04:09:52;;;;;;;7.57;1.77;;;10.90;99.90;;;;;;5008081;28;20033;-65
2022/06/27 04:12:17;;;;;;;4.32;1.40;;;10.80;99.90;;;;;;5008414;28;20094;-65
2022/06/27 04:14:43;;;;;;;3.08;1.40;;;10.80;99.90;;;;;;5010282;28;20030;-65
2022/06/27 04:17:09;;;;;;;4.85;1.65;;;10.70;99.90;;;;;;5008361;28;20505;-65
2022/06/27 04:19:34;;;;;;;3.60;1.13;;;10.80;99.90;;;;;;5010572;28;20529;-65
2022/06/27 04:22:00;;;;;;;3.95;1.42;;;10.80;99.90;;;;;;5008536;28;20022;-64
2022/06/27 04:24:25;;;;;;;4.25;1.23;;;10.90;99.90;;;;;;5009878;28;20038;-65
2022/06/27 04:26:51;;;;;;;4.57;1.75;;;10.90;99.90;;;;;;5004121;28;20041;-65
2022/06/27 04:29:17;;;;;;;7.13;1.38;;;10.90;99.90;;;;;;5008455;28;20057;-65
2022/06/27 04:31:42;;;;;;;1.98;0.98;;;10.90;99.90;;;;;;5009943;28;20054;-65
2022/06/27 04:34:12;;;;;;;7.45;1.60;;;10.90;99.90;;;;;;5007504;28;20094;-65
2022/06/27 04:36:37;;;;;;;5.93;1.83;;;10.90;99.90;;;;;;5010350;28;20030;-65
2022/06/27 04:39:03;;;;;;;5.88;1.58;;;11.00;99.90;;;;;;5008199;28;20096;-64
2022/06/27 04:41:29;;;;;;;5.97;1.65;;;11.00;99.90;;;;;;5009964;28;20076;-65
2022/06/27 04:43:55;;;;;;;2.33;1.08;;;11.10;99.90;;;;;;5008744;28;20100;-64
2022/06/27 04:46:22;;;;;;;10.93;2.20;;;11.10;99.90;;;;;;5009265;28;20387;-65
2022/06/27 04:48:48;;;;;;;2.55;1.15;;;11.10;99.90;;;;;;5009783;28;20104;-64
2022/06/27 04:51:14;;;;;;;5.40;1.40;;;11.00;99.90;;;;;;5008316;28;20085;-65
2022/06/27 04:53:41;;;;;;;5.57;1.48;;;11.10;99.90;;;;;;5006448;28;20053;-64
2022/06/27 04:56:08;;;;;;;5.15;1.50;;;11.10;99.90;;;;;;5007655;28;20490;-63
2022/06/27 04:58:34;;;;;;;6.63;1.45;;;11.10;99.90;;;;;;5009739;28;20087;-65
2022/06/27 05:01:00;;;;;;;3.80;1.33;;;11.00;99.90;;;;;;5002260;28;20034;-64
2022/06/27 05:03:27;;;;;;;5.78;2.28;;;11.10;99.90;;;;;;5009326;28;20041;-64
2022/06/27 05:05:52;;;;;;;3.72;1.45;;;11.20;99.90;;;;;;5008252;28;20489;-65
2022/06/27 05:08:20;;;;;;;3.67;1.60;;;11.30;99.90;;;;;;5007875;28;20037;-65
2022/06/27 05:10:46;;;;;;;3.60;1.63;;;11.20;99.90;;;;;;5008893;28;20026;-65
2022/06/27 05:13:13;;;;;;;7.65;1.80;;;11.30;99.90;;;;;;5006158;28;20037;-65
2022/06/27 05:15:39;;;;;;;5.13;1.38;;;11.30;99.90;;;;;;5008782;28;20111;-65
2022/06/27 05:18:05;;;;;;;2.83;1.25;;;11.40;99.90;;;;;;5005278;28;20093;-63
2022/06/27 05:20:30;;;;;;;5.53;2.05;;;11.40;99.90;;;;;;5016540;28;20034;-65
2022/06/27 05:23:00;;;;;;;3.70;1.60;;;11.50;99.90;;;;;;5008629;28;20034;-65
2022/06/27 05:25:26;;;;;;;4.00;1.52;;;11.50;99.90;;;;;;5008657;28;20030;-65
2022/06/27 05:27:51;;;;;;;4.28;1.60;;;11.60;99.90;;;;;;5008007;28;20375;-65
2022/06/27 05:30:17;;;;;;;6.15;2.10;;;11.70;99.90;;;;;;5006630;28;20355;-65
2022/06/27 05:32:43;;;;;;;4.88;1.70;;;11.80;99.90;;;;;;5005731;28;20030;-65
2022/06/27 05:35:10;;;;;;;6.43;1.60;;;11.80;99.90;;;;;;4998741;28;20035;-65
2022/06/27 05:37:37;;;;;;;6.50;1.80;;;11.90;99.90;;;;;;5009567;28;20032;-66
2022/06/27 05:40:03;;;;;;;5.43;2.25;;;11.90;99.90;;;;;;5006344;28;20042;-65
2022/06/27 05:42:29;;;;;;;6.70;2.05;;;11.90;99.90;;;;;;5008698;28;20036;-66
2022/06/27 05:44:55;;;;;;;6.55;2.35;;;12.00;99.90;;;;;;5008949;28;20034;-66
2022/06/27 05:47:21;;;;;;;4.88;1.80;;;12.10;99.90;;;;;;5007763;28;20057;-65
2022/06/27 05:49:49;;;;;;;5.22;1.90;;;12.10;99.90;;;;;;5006322;28;20030;-64
2022/06/27 05:52:14;;;;;;;7.20;2.60;;;12.10;99.90;;;;;;5004752;28;20121;-65
2022/06/27 05:54:40;;;;;;;4.18;1.45;;;12.10;99.90;;;;;;5009274;28;20105;-65
2022/06/27 05:57:06;;;;;;;12.38;2.22;;;12.10;99.90;;;;;;5004721;28;20065;-66
2022/06/27 05:59:33;;;;;;;6.35;1.60;;;12.30;99.90;;;;;;5008243;28;20462;-66
2022/06/27 06:02:00;;;;;;;5.82;1.70;;;12.40;99.90;;;;;;5006823;28;20026;-65
2022/06/27 06:04:26;;;;;;;7.70;1.63;;;12.40;99.90;;;;;;5009350;28;20034;-65
2022/06/27 06:06:52;;;;;;;6.32;1.58;;;12.50;99.90;;;;;;5007920;28;20030;-65
2022/06/27 06:09:18;;;;;;;5.93;1.70;;;12.60;99.90;;;;;;5005350;28;20040;-65
2022/06/27 06:11:48;;;;;;;8.65;1.60;;;12.70;99.90;;;;;;4997758;28;20085;-67
2022/06/27 06:14:19;;;;;;;7.90;1.20;;;12.90;99.90;;;;;;5002947;28;20034;-65
2022/06/27 06:16:47;;;;;;;3.53;0.90;;;13.20;99.90;;;;;;5003908;28;20040;-65
2022/06/27 06:19:13;;;;;;;5.10;0.93;;;13.40;99.90;;;;;;5010055;28;20405;-65
2022/06/27 06:21:39;;;;;;;7.25;1.85;;;13.70;99.90;;;;;;5011681;28;20033;-65
2022/06/27 06:24:05;;;;;;;5.88;1.50;;;13.90;99.90;;;;;;5011251;28;20038;-65
2022/06/27 06:26:30;;;;;;;6.13;1.10;;;14.10;99.90;;;;;;5008872;28;20553;-66
2022/06/27 06:29:01;;;;;;;6.00;1.30;;;14.30;99.90;;;;;;5006560;28;20061;-66
2022/06/27 06:31:27;;;;;;;6.15;1.40;;;14.50;99.90;;;;;;5007151;28;20149;-65
2022/06/27 06:33:53;;;;;;;6.78;1.02;;;14.60;99.90;;;;;;5011716;28;20061;-66
2022/06/27 06:36:23;;;;;;;5.65;1.27;;;14.80;99.90;;;;;;5010507;28;20458;-65
2022/06/27 06:38:51;;;;;;;4.50;1.00;;;14.90;99.90;;;;;;5011793;28;20037;-65
2022/06/27 06:41:17;;;;;;;4.80;1.33;;;15.20;99.90;;;;;;5014453;28;20026;-65
2022/06/27 06:43:45;;;;;;;4.75;0.90;;;15.30;99.90;;;;;;5011509;28;20038;-66
2022/06/27 06:46:12;;;;;;;5.60;0.82;;;15.30;99.90;;;;;;5007253;28;20034;-66
2022/06/27 06:48:38;;;;;;;6.03;0.90;;;15.30;99.90;;;;;;5011748;28;20034;-66
2022/06/27 06:51:07;;;;;;;6.57;0.90;;;15.40;99.90;;;;;;5008500;28;20022;-66
2022/06/27 06:53:35;;;;;;;6.32;1.50;;;15.50;99.90;;;;;;5005224;28;20036;-65
2022/06/27 06:56:02;;;;;;;9.18;1.45;;;15.60;99.90;;;;;;5008293;28;20029;-64
2022/06/27 06:58:27;;;;;;;11.40;1.10;;;15.70;99.90;;;;;;5010912;28;20113;-65
2022/06/27 07:00:54;;;;;;;6.40;0.73;;;15.70;99.90;;;;;;5005478;28;20121;-66
2022/06/27 07:03:20;;;;;;;5.68;1.10;;;15.70;99.90;;;;;;5010923;28;20030;-66
2022/06/27 07:05:46;;;;;;;8.20;2.30;;;15.70;99.90;;;;;;5009591;28;20117;-66
2022/06/27 07:08:12;;;;;;;11.43;1.95;;;15.80;99.90;;;;;;5008967;28;20370;-66
2022/06/27 07:10:39;;;;;;;9.23;1.40;;;16.00;99.90;;;;;;4999147;28;20486;-66
2022/06/27 07:13:05;;;;;;;8.95;0.95;;;16.10;99.90;;;;;;4999113;28;20041;-64
2022/06/27 07:15:33;;;;;;;4.30;1.20;;;16.10;99.90;;;;;;5009219;28;20026;-66
2022/06/27 07:18:00;;;;;;;7.88;1.20;;;16.20;99.90;;;;;;5004899;28;20155;-66
2022/06/27 07:20:27;;;;;;;6.80;1.17;;;16.10;99.90;;;;;;5010933;28;20025;-65
2022/06/27 07:22:53;;;;;;;6.47;0.85;;;16.10;99.90;;;;;;5002822;28;20368;-66
2022/06/27 07:25:19;;;;;;;6.90;0.93;;;16.00;99.90;;;;;;5005617;28;20029;-66
2022/06/27 07:27:46;;;;;;;4.78;1.55;;;15.90;99.90;;;;;;5007883;28;20033;-66
2022/06/27 07:30:14;;;;;;;6.65;0.85;;;15.90;99.90;;;;;;4998073;28;20061;-68
2022/06/27 07:32:41;;;;;;;11.00;1.27;;;16.00;99.90;;;;;;5010341;28;20532;-69
2022/06/27 07:35:11;;;;;;;12.80;1.63;;;16.00;99.90;;;;;;5008320;28;20490;-67
2022/06/27 07:37:48;;;;;;;8.50;1.20;;;16.00;99.90;;;;;;5009959;28;20048;-69
2022/06/27 07:40:19;;;;;;;7.93;1.10;;;16.20;99.90;;;;;;5004291;28;20065;-67
2022/06/27 07:42:46;;;;;;;7.03;1.40;;;16.10;99.90;;;;;;5005546;28;20026;-69
2022/06/27 07:45:14;;;;;;;10.02;1.08;;;16.20;99.90;;;;;;5003577;28;20100;-68
2022/06/27 07:47:42;;;;;;;5.07;0.90;;;16.10;99.90;;;;;;5010071;28;20053;-68
2022/06/27 07:50:10;;;;;;;5.15;0.82;;;16.10;99.90;;;;;;5001109;28;20549;-67
2022/06/27 07:55:23;;;;;;;7.97;1.02;;;16.00;99.90;;;;;;5008406;28;20037;-66
2022/06/27 07:57:52;;;;;;;9.05;1.10;;;16.00;99.90;;;;;;5006402;28;20034;-65
2022/06/27 08:00:18;;;;;;;5.20;1.25;;;16.00;99.90;;;;;;5008374;28;20665;-66
2022/06/27 08:02:44;;;;;;;11.40;1.02;;;16.30;99.90;;;;;;5009073;28;20164;-67
2022/06/27 08:05:10;;;;;;;6.63;1.33;;;16.40;99.90;;;;;;5006102;28;20033;-67
2022/06/27 08:07:37;;;;;;;8.13;1.20;;;16.50;99.90;;;;;;5009083;28;20049;-66
2022/06/27 08:10:04;;;;;;;7.10;1.15;;;16.60;99.90;;;;;;5006384;28;20026;-69
2022/06/27 08:12:31;;;;;;;5.55;0.80;;;16.50;99.90;;;;;;5009655;28;20037;-67
2022/06/27 08:14:56;;;;;;;6.68;0.98;;;16.50;99.90;;;;;;5008351;28;20113;-67
2022/06/27 08:17:23;;;;;;;9.10;0.93;;;16.50;99.90;;;;;;5007374;28;20112;-66
2022/06/27 08:19:50;;;;;;;7.68;1.30;;;16.50;99.90;;;;;;5007969;28;20045;-67
2022/06/27 08:22:15;;;;;;;6.45;0.90;;;16.40;99.90;;;;;;5008371;28;20029;-68
2022/06/27 08:24:42;;;;;;;7.25;0.93;;;16.60;99.90;;;;;;5003772;28;20548;-66
2022/06/27 08:27:08;;;;;;;7.28;1.10;;;16.60;99.90;;;;;;5006846;28;20026;-66
2022/06/27 08:29:34;;;;;;;5.43;1.10;;;16.60;99.90;;;;;;5007661;28;20148;-67
2022/06/27 08:32:00;;;;;;;5.70;0.82;;;17.00;99.90;;;;;;5006801;28;20038;-67
2022/06/27 08:34:26;;;;;;;7.07;1.13;;;17.20;99.90;;;;;;5009248;28;20025;-67
2022/06/27 08:36:52;;;;;;;5.55;0.70;;;17.30;99.90;;;;;;5003232;28;20543;-68
2022/06/27 08:39:18;;;;;;;8.57;2.13;;;17.50;99.90;;;;;;5005697;28;20581;-68
2022/06/27 08:41:48;;;;;;;8.52;1.00;;;17.80;99.90;;;;;;5008783;28;20054;-68
2022/06/27 08:44:15;;;;;;;8.05;0.98;;;18.10;99.90;;;;;;5005001;28;20104;-67
2022/06/27 08:46:45;;;;;;;13.18;1.63;;;18.20;99.90;;;;;;5009635;28;20026;-68
2022/06/27 08:49:14;;;;;;;5.50;0.98;;;18.40;99.90;;;;;;5006487;28;20038;-68
2022/06/27 08:51:41;;;;;;;6.03;1.48;;;18.40;99.90;;;;;;5008337;28;20133;-68
2022/06/27 08:54:07;;;;;;;5.05;0.77;;;18.70;99.90;;;;;;5006323;28;20026;-67
2022/06/27 08:56:33;;;;;;;7.68;1.00;;;18.50;99.90;;;;;;5007599;28;20022;-67
2022/06/27 08:58:59;;;;;;;5.22;0.95;;;18.40;99.90;;;;;;5002873;28;20112;-66
2022/06/27 09:01:27;;;;;;;7.20;1.10;;;18.30;99.90;;;;;;5009554;28;20048;-67
2022/06/27 09:04:01;;;;;;;3.30;0.63;;;18.40;99.90;;;;;;5007895;28;20029;-68
2022/06/27 09:06:30;;;;;;;5.75;0.88;;;18.70;99.90;;;;;;5009162;28;20128;-67
2022/06/27 09:09:05;;;;;;;8.35;1.25;;;18.70;99.90;;;;;;5007099;28;20025;-67
2022/06/27 09:11:33;;;;;;;7.30;1.17;;;18.70;99.90;;;;;;5008723;28;20379;-66
2022/06/27 09:14:00;;;;;;;4.45;0.90;;;19.00;99.90;;;;;;5006431;28;20049;-67
2022/06/27 09:16:27;;;;;;;6.22;0.88;;;18.60;99.90;;;;;;5009328;28;20394;-67
2022/06/27 09:18:53;;;;;;;12.02;1.58;;;18.50;99.90;;;;;;5007733;28;20037;-69
2022/06/27 09:21:20;;;;;;;7.95;1.23;;;18.50;99.90;;;;;;5007249;28;20029;-67
2022/06/27 09:23:49;;;;;;;7.93;1.23;;;18.50;99.90;;;;;;5008181;28;20033;-67
2022/06/27 09:26:21;;;;;;;12.60;1.52;;;18.50;99.90;;;;;;5007364;28;20076;-67
2022/06/27 09:28:56;;;;;;;;;;;18.30;99.90;;;;;;5008490;28;20133;-68
2022/06/27 09:31:30;;;;;;;11.32;1.17;;;18.30;99.90;;;;;;5007354;28;20015;-67
2022/06/27 09:34:16;;;;;;;7.82;0.98;;;18.50;99.90;;;;;;5007570;28;20042;-67
2022/06/27 09:36:51;;;;;;;8.43;1.40;;;18.50;99.90;;;;;;5006895;28;20026;-67
2022/06/27 09:39:28;;;;;;;6.55;1.27;;;18.50;99.90;;;;;;5006373;28;20042;-67
2022/06/27 09:41:57;;;;;;;4.85;1.45;;;18.50;99.90;;;;;;5008567;28;20532;-67
2022/06/27 09:44:29;;;;;;;9.82;1.58;;;18.40;99.90;;;;;;5007084;28;20081;-67
2022/06/27 09:47:19;;;;;;;9.70;0.93;;;18.00;99.90;;;;;;5003534;28;20030;-66
2022/06/27 09:49:47;;;;;;;5.80;1.48;;;18.10;99.90;;;;;;5010344;28;20045;-67
2022/06/27 09:52:15;;;;;;;11.18;1.45;;;18.40;99.90;;;;;;5009522;28;20058;-67
2022/06/27 09:54:43;;;;;;;5.03;0.68;;;18.70;99.90;;;;;;5014668;28;20436;-67
2022/06/27 09:57:10;;;;;;;15.55;1.55;;;19.00;99.90;;;;;;5004444;28;20127;-68
2022/06/27 09:59:37;;;;;;;11.35;1.55;;;18.90;99.90;;;;;;5012768;28;20065;-67
2022/06/27 10:02:04;;;;;;;7.35;1.00;;;19.00;99.90;;;;;;5010793;28;20121;-68
2022/06/27 10:04:31;;;;;;;8.00;1.10;;;18.70;99.90;;;;;;5011037;28;20026;-69
2022/06/27 10:07:00;;;;;;;4.20;1.05;;;18.70;99.90;;;;;;5011873;28;20026;-67
2022/06/27 10:09:26;;;;;;;7.65;0.90;;;18.80;99.90;;;;;;5012550;28;20026;-67
2022/06/27 10:12:23;;;;;;;8.85;1.27;;;18.80;99.90;;;;;;5011938;28;20048;-67
2022/06/27 10:15:10;;;;;;;5.93;0.90;;;18.80;99.90;;;;;;5007219;28;20041;-66
2022/06/27 10:17:52;;;;;;;9.48;1.02;;;19.20;99.90;;;;;;5010903;28;20462;-67
2022/06/27 10:20:29;;;;;;;8.60;1.55;;;19.00;99.90;;;;;;5009529;28;20569;-66
2022/06/27 10:23:04;;;;;;;7.57;0.98;;;18.90;99.90;;;;;;5012019;28;20026;-66
2022/06/27 10:25:30;;;;;;;8.52;1.10;;;18.90;99.90;;;;;;5007545;28;20417;-67
2022/06/27 10:28:10;;;;;;;11.20;1.55;;;19.30;99.90;;;;;;5010010;28;20485;-67
2022/06/27 10:30:58;;;;;;;7.25;1.33;;;19.20;99.90;;;;;;5009384;28;20073;-68
2022/06/27 10:33:26;;;;;;;5.35;1.10;;;19.10;99.90;;;;;;5005750;28;20523;-67
2022/06/27 10:35:59;;;;;;;10.85;2.60;;;19.20;99.90;;;;;;5010284;28;20029;-67
2022/06/27 10:38:45;;;;;;;7.95;1.10;;;19.20;99.90;;;;;;5007158;28;20105;-67
2022/06/27 10:41:17;;;;;;;5.57;0.90;;;19.00;99.90;;;;;;5003860;28;20029;-66
2022/06/27 10:43:48;;;;;;;9.45;1.63;;;19.10;99.90;;;;;;5003535;28;20115;-65
2022/06/27 10:46:17;;;;;;;5.30;1.55;;;19.20;99.90;;;;;;5001377;28;20025;-67
2022/06/27 10:48:51;;;;;;;6.53;0.95;;;19.30;99.90;;;;;;5009012;28;20072;-68
2022/06/27 10:51:28;;;;;;;5.72;1.50;;;19.40;99.90;;;;;;5006798;28;20057;-67
2022/06/27 10:54:09;;;;;;;6.32;0.88;;;19.70;99.90;;;;;;5008202;28;20425;-67
2022/06/27 10:56:52;;;;;;;8.60;2.00;;;19.80;99.90;;;;;;5004510;28;20050;-66
2022/06/27 10:59:17;;;;;;;4.05;0.85;;;19.50;99.90;;;;;;5006105;28;20046;-67
2022/06/27 11:02:04;;;;;;;3.65;0.77;;;19.40;99.90;;;;;;5011127;28;20101;-66
2022/06/27 11:04:31;;;;;;;13.13;1.27;;;19.70;99.90;;;;;;5021547;28;20028;-65
2022/06/27 11:07:03;;;;;;;5.40;0.98;;;19.70;99.90;;;;;;5008735;28;20030;-68
2022/06/27 11:09:37;;;;;;;11.60;2.42;;;20.00;99.90;;;;;;5010894;28;20030;-67
2022/06/27 11:12:04;;;;;;;6.35;1.33;;;19.90;99.90;;;;;;5008526;28;20029;-66
2022/06/27 11:14:29;;;;;;;8.52;1.10;;;20.10;99.90;;;;;;5004259;28;20090;-66
2022/06/27 11:16:55;;;;;;;7.07;1.25;;;20.10;99.90;;;;;;5009236;28;20434;-66
2022/06/27 11:22:23;;;;;;;3.90;1.17;;;21.00;99.90;;;;;;5009457;28;20033;-67
2022/06/27 11:24:49;;;;;;;8.60;1.75;;;21.00;99.90;;;;;;5009848;28;20037;-66
2022/06/27 11:27:15;;;;;;;4.05;1.13;;;21.20;99.90;;;;;;5007431;28;20029;-67
2022/06/27 11:32:32;;;;;;;9.45;1.10;;;20.80;99.90;;;;;;5003890;28;20156;-68
2022/06/27 11:34:58;;;;;;;7.45;1.55;;;20.00;99.90;;;;;;5009170;28;20124;-67
2022/06/27 11:37:27;;;;;;;4.90;1.30;;;20.00;99.90;;;;;;5010099;28;20026;-67
2022/06/27 11:39:58;;;;;;;3.60;1.20;;;20.00;99.90;;;;;;5007478;28;20041;-66
2022/06/27 11:42:29;;;;;;;2.05;0.50;;;20.40;99.90;;;;;;5003260;28;20461;-66
2022/06/27 11:45:10;;;;;;;4.30;0.57;;;20.80;99.90;;;;;;5007943;28;20165;-67
2022/06/27 11:47:38;;;;;;;1.80;0.30;;;20.80;99.90;;;;;;5007959;28;20129;-67
2022/06/27 11:50:06;;;;;;;5.47;0.45;;;21.30;99.90;;;;;;5007698;28;20085;-67
2022/06/27 11:52:42;;;;;;;3.78;0.65;;;22.00;99.90;;;;;;5006916;28;20052;-67
2022/06/27 11:55:14;;;;;;;2.05;0.40;;;21.30;99.90;;;;;;5001601;28;20479;-67
2022/06/27 11:57:50;;;;;;;2.58;0.30;;;20.10;99.90;;;;;;5002003;28;20042;-67
2022/06/27 12:00:24;;;;;;;15.95;0.85;;;20.10;99.90;;;;;;5006902;28;20069;-67
2022/06/27 12:03:06;;;;;;;1.42;0.30;;;20.10;99.90;;;;;;5009245;28;20100;-67
2022/06/27 12:05:33;;;;;;;3.38;0.43;;;20.60;99.90;;;;;;5010389;28;20030;-68
2022/06/27 12:08:13;;;;;;;3.13;0.80;;;20.60;99.90;;;;;;5008315;28;20037;-68
2022/06/27 12:11:16;;;;;;;3.97;0.70;;;20.60;99.90;;;;;;5009709;28;20037;-67
2022/06/27 12:13:36;;;;;;;6.28;0.85;;;21.00;99.90;;;;;;5007868;28;20510;-66
2022/06/27 12:16:06;;;;;;;3.67;0.50;;;21.20;99.90;;;;;;5006487;28;20116;-66
2022/06/27 12:18:51;;;;;;;4.07;0.57;;;21.10;99.90;;;;;;5008810;28;20038;-67
2022/06/27 12:21:24;;;;;;;4.15;0.82;;;21.50;99.90;;;;;;4999971;28;20506;-67
2022/06/27 12:23:50;;;;;;;4.22;0.50;;;21.30;99.90;;;;;;5006901;28;20097;-66
2022/06/27 12:26:16;;;;;;;3.72;1.00;;;21.10;99.90;;;;;;5005623;28;20396;-66
2022/06/27 12:28:42;;;;;;;6.68;0.88;;;20.90;99.90;;;;;;5003744;28;20508;-66
2022/06/27 12:31:08;;;;;;;6.43;1.15;;;20.50;99.90;;;;;;5007240;28;20046;-67
2022/06/27 12:33:34;;;;;;;6.68;1.17;;;20.10;99.90;;;;;;5008178;28;20022;-66
2022/06/27 12:36:00;;;;;;;5.68;0.88;;;20.30;99.90;;;;;;5008127;28;20042;-67
2022/06/27 12:38:26;;;;;;;4.63;0.60;;;20.10;99.90;;;;;;5010123;28;20037;-67
2022/06/27 12:41:11;;;;;;;2.88;1.05;;;20.10;99.90;;;;;;4999900;28;21527;-66
2022/06/27 12:43:38;;;;;;;4.45;1.00;;;19.70;99.90;;;;;;5021312;28;20413;-66
2022/06/27 12:46:03;;;;;;;4.95;0.90;;;19.60;99.90;;;;;;5001858;28;20022;-65
2022/06/27 12:48:29;;;;;;;9.27;1.13;;;19.80;99.90;;;;;;5002637;28;20076;-66
2022/06/27 12:50:55;;;;;;;6.72;1.08;;;19.60;99.90;;;;;;5007183;28;20079;-66
2022/06/27 12:53:20;;;;;;;10.90;1.50;;;19.50;99.90;;;;;;5008036;28;20038;-67
2022/06/27 12:55:46;;;;;;;6.53;1.02;;;19.60;99.90;;;;;;5008380;28;20026;-66
2022/06/27 12:58:12;;;;;;;4.10;0.60;;;19.80;99.90;;;;;;4999530;28;20393;-67
2022/06/27 13:00:37;;;;;;;3.08;0.68;;;19.70;99.90;;;;;;5009449;28;20044;-67